Deerton, Michigan
Current Conditions -  °F | °C
As of 9:47 AM on Monday 24 Nov 2014 (Local Time) from KSAW Reporting Station
Haze Haze  
Wind Chill: 25°   Ceiling: 400
Heat Index: 36°   Visibility: 2mi
Dew Point: 36°   Wind: 17mph
Humidity: 100%   Direction: 340°NNW
Pressure: 29"   Gusts: 26mph
Location:  46.47°N, 87.04°W
Report Text: KSAW 241447Z 34015G23KT 2SM BR OVC004 02/02 A2900
Loading
Personal Weather Stations






























Interactive Weather Map New forecast layout! Learn more

10-Day Weather Forecast

Advertisements
Track Severe Weather on mobile